createdAt,value
2019-04-20T00:00:56.030Z,101363.52
2019-04-20T00:03:23.700Z,101368.14
2019-04-20T00:05:52.988Z,101362.72
2019-04-20T00:08:25.188Z,101364.23
2019-04-20T00:10:57.018Z,101363.39
2019-04-20T00:13:32.317Z,101361.97
2019-04-20T00:15:51.349Z,101361.77
2019-04-20T00:18:19.209Z,101361.09
2019-04-20T00:20:57.566Z,101360.41
2019-04-20T00:23:33.444Z,101357.30
2019-04-20T00:26:52.128Z,101354.94
2019-04-20T00:29:10.338Z,101356.70
2019-04-20T00:31:38.067Z,101351.30
2019-04-20T00:34:02.411Z,101350.80
2019-04-20T00:36:22.212Z,101347.23
2019-04-20T00:38:53.627Z,101345.75
2019-04-20T00:41:20.744Z,101345.75
2019-04-20T00:43:49.153Z,101349.59
2019-04-20T00:46:26.354Z,101349.53
2019-04-20T00:48:57.231Z,101344.74
2019-04-20T00:51:32.672Z,101349.28
2019-04-20T00:53:48.989Z,101347.62
2019-04-20T00:56:14.139Z,101349.45
2019-04-20T00:58:52.299Z,101341.62
2019-04-20T01:01:32.197Z,101337.94
2019-04-20T01:04:04.587Z,101338.78
2019-04-20T01:06:41.185Z,101340.60
2019-04-20T01:09:05.509Z,101337.92
2019-04-20T01:11:39.953Z,101338.74
2019-04-20T01:14:09.403Z,101338.00
2019-04-20T01:16:43.133Z,101338.33
2019-04-20T01:19:04.744Z,101338.78
2019-04-20T01:21:33.882Z,101343.33
2019-04-20T01:24:04.927Z,101343.09
2019-04-20T01:26:34.663Z,101348.39
2019-04-20T01:29:12.160Z,101340.80
2019-04-20T01:31:38.531Z,101344.42
2019-04-20T01:34:08.251Z,101343.38
2019-04-20T01:36:46.151Z,101346.17
2019-04-20T01:39:11.168Z,101339.30
2019-04-20T01:41:31.252Z,101344.19
2019-04-20T01:43:58.556Z,101338.78
2019-04-20T01:46:28.360Z,101349.52
2019-04-20T01:48:54.884Z,101348.91
2019-04-20T01:51:26.975Z,101350.62
2019-04-20T01:54:14.785Z,101348.69
2019-04-20T01:56:40.411Z,101341.80
2019-04-20T01:59:44.812Z,101342.14
2019-04-20T02:02:47.394Z,101346.09
2019-04-20T02:05:17.952Z,101346.39
2019-04-20T02:07:46.585Z,101347.31
2019-04-20T02:10:14.752Z,101343.89
2019-04-20T02:12:42.293Z,101345.56
2019-04-20T02:15:20.043Z,101347.02
2019-04-20T02:17:46.692Z,101348.23
2019-04-20T02:20:31.913Z,101349.08
2019-04-20T02:22:55.352Z,101349.08
2019-04-20T02:25:12.159Z,101356.98
2019-04-20T02:27:47.150Z,101352.44
2019-04-20T02:30:39.632Z,101357.25
2019-04-20T02:33:37.882Z,101355.80
2019-04-20T02:39:05.550Z,101359.45
2019-04-20T02:41:27.569Z,101359.36
2019-04-20T02:43:57.694Z,101358.59
2019-04-20T02:46:09.001Z,101361.75
2019-04-20T02:48:41.600Z,101354.24
2019-04-20T02:51:09.054Z,101349.90
2019-04-20T02:53:57.478Z,101358.70
2019-04-20T02:58:41.702Z,101360.94
2019-04-20T03:01:05.078Z,101352.89
2019-04-20T03:03:22.551Z,101358.19
2019-04-20T03:05:52.056Z,101353.83
2019-04-20T03:08:29.346Z,101355.52
2019-04-20T03:11:05.832Z,101350.53
2019-04-20T03:13:26.204Z,101353.13
2019-04-20T03:15:56.436Z,101361.09
2019-04-20T03:18:27.664Z,101350.84
2019-04-20T03:21:00.790Z,101355.83
2019-04-20T03:23:29.825Z,101349.98
2019-04-20T03:26:06.434Z,101353.69
2019-04-20T03:29:01.355Z,101354.22
2019-04-20T03:32:08.512Z,101351.78
2019-04-20T03:34:38.461Z,101350.14
2019-04-20T03:36:50.042Z,101352.53
2019-04-20T03:39:11.500Z,101351.69
2019-04-20T03:41:26.401Z,101356.49
2019-04-20T03:43:47.747Z,101354.55
2019-04-20T03:46:19.958Z,101362.00
2019-04-20T03:48:59.914Z,101359.69
2019-04-20T03:51:40.143Z,101356.85
2019-04-20T03:54:18.425Z,101362.09
2019-04-20T03:57:21.251Z,101371.95
2019-04-20T03:59:56.108Z,101363.36
2019-04-20T04:03:08.303Z,101368.44
2019-04-20T04:05:34.142Z,101365.91
2019-04-20T04:07:58.019Z,101361.03
2019-04-20T04:10:28.343Z,101363.84
2019-04-20T04:13:22.925Z,101366.53
2019-04-20T04:15:57.588Z,101360.27
2019-04-20T04:18:29.136Z,101367.67
2019-04-20T04:20:58.155Z,101362.63
2019-04-20T04:23:36.624Z,101368.16
2019-04-20T04:26:15.034Z,101364.02
2019-04-20T04:28:37.224Z,101362.40
2019-04-20T04:31:08.171Z,101368.30
2019-04-20T04:36:00.362Z,101368.22
2019-04-20T04:38:37.361Z,101365.28
2019-04-20T04:41:11.232Z,101372.73
2019-04-20T04:43:34.209Z,101371.22
2019-04-20T04:45:41.075Z,101383.98
2019-04-20T04:48:16.763Z,101382.46
2019-04-20T04:50:48.334Z,101391.05
2019-04-20T04:53:17.057Z,101389.64
2019-04-20T04:55:47.702Z,101396.84
2019-04-20T04:58:14.879Z,101396.39
2019-04-20T05:00:51.545Z,101405.34
2019-04-20T05:03:45.007Z,101397.77
2019-04-20T05:06:35.511Z,101406.90
2019-04-20T05:08:56.827Z,101406.12
2019-04-20T05:11:21.813Z,101412.17
2019-04-20T05:13:56.909Z,101415.03
2019-04-20T05:16:43.469Z,101415.75
2019-04-20T05:19:13.472Z,101416.02
2019-04-20T05:22:11.077Z,101421.31
2019-04-20T05:24:43.959Z,101418.38
2019-04-20T05:27:51.051Z,101426.58
2019-04-20T05:30:01.518Z,101427.27
2019-04-20T05:32:39.684Z,101432.82
2019-04-20T05:35:25.501Z,101429.17
2019-04-20T05:37:59.198Z,101428.86
2019-04-20T05:40:16.470Z,101422.30
2019-04-20T05:42:54.140Z,101430.55
2019-04-20T05:45:16.492Z,101427.51
2019-04-20T05:47:48.378Z,101433.12
2019-04-20T05:50:15.235Z,101435.38
2019-04-20T05:55:16.218Z,101429.63
2019-04-20T05:57:51.876Z,101440.25
2019-04-20T06:00:23.337Z,101437.95
2019-04-20T06:02:46.824Z,101438.25
2019-04-20T06:05:36.475Z,101440.19
2019-04-20T06:07:48.801Z,101443.45
2019-04-20T06:10:20.801Z,101446.14
2019-04-20T06:12:49.883Z,101444.91
2019-04-20T06:15:26.458Z,101442.38
2019-04-20T06:18:13.541Z,101441.48
2019-04-20T06:20:50.898Z,101444.28
2019-04-20T06:23:59.329Z,101446.07
2019-04-20T06:27:16.027Z,101451.26
2019-04-20T06:29:31.036Z,101448.48
2019-04-20T06:32:17.333Z,101447.17
2019-04-20T06:34:51.323Z,101449.59
2019-04-20T06:49:33.306Z,101451.64
2019-04-20T06:52:24.373Z,101462.55
2019-04-20T06:55:28.989Z,101455.71
2019-04-20T06:57:45.462Z,101452.42
2019-04-20T07:02:53.963Z,101455.92
2019-04-20T07:05:25.998Z,101452.48
2019-04-20T07:08:48.915Z,101456.44
2019-04-20T07:11:13.532Z,101456.09
2019-04-20T07:13:30.883Z,101453.77
2019-04-20T07:16:21.373Z,101455.05
2019-04-20T07:19:25.942Z,101456.20
2019-04-20T07:22:25.327Z,101456.16
2019-04-20T07:24:50.846Z,101449.18
2019-04-20T07:27:22.886Z,101460.67
2019-04-20T07:32:19.491Z,101449.56
2019-04-20T07:34:54.021Z,101453.73
2019-04-20T07:39:58.897Z,101453.78
2019-04-20T07:42:32.837Z,101454.86
2019-04-20T07:45:01.562Z,101454.53
2019-04-20T07:47:34.476Z,101453.31
2019-04-20T07:49:50.026Z,101451.59
2019-04-20T07:52:02.151Z,101455.00
2019-04-20T07:55:12.452Z,101446.13
2019-04-20T07:57:21.542Z,101451.30
2019-04-20T07:59:50.955Z,101452.28
2019-04-20T08:02:48.845Z,101452.45
2019-04-20T08:05:10.675Z,101442.28
2019-04-20T08:07:39.208Z,101447.27
2019-04-20T08:10:02.897Z,101444.27
2019-04-20T08:12:55.903Z,101449.45
2019-04-20T08:15:34.060Z,101453.24
2019-04-20T08:17:56.352Z,101443.35
2019-04-20T08:20:20.772Z,101447.83
2019-04-20T08:22:55.313Z,101450.37
2019-04-20T08:25:14.234Z,101444.61
2019-04-20T08:27:48.816Z,101442.22
2019-04-20T08:30:42.363Z,101440.22
2019-04-20T08:33:19.627Z,101438.19
2019-04-20T08:36:02.794Z,101432.91
2019-04-20T08:38:51.130Z,101431.57
2019-04-20T08:40:53.901Z,101442.84
2019-04-20T08:43:38.235Z,101435.33
2019-04-20T08:45:51.045Z,101437.31
2019-04-20T08:48:25.762Z,101434.73
2019-04-20T08:50:51.340Z,101438.11
2019-04-20T08:53:27.686Z,101426.87
2019-04-20T08:55:45.057Z,101430.56
2019-04-20T08:58:02.702Z,101427.86
2019-04-20T09:00:41.779Z,101422.41
2019-04-20T09:03:15.311Z,101416.14
2019-04-20T09:05:45.578Z,101414.91
2019-04-20T09:08:11.021Z,101413.05
2019-04-20T09:10:49.238Z,101414.45
2019-04-20T09:13:15.921Z,101409.16
2019-04-20T09:15:34.185Z,101411.72
2019-04-20T09:18:13.940Z,101409.91
2019-04-20T09:20:48.714Z,101406.59
2019-04-20T09:23:36.309Z,101409.73
2019-04-20T09:26:26.571Z,101407.69
2019-04-20T09:28:59.297Z,101403.84
2019-04-20T09:31:39.254Z,101403.54
2019-04-20T09:34:40.324Z,101406.24
2019-04-20T09:37:41.425Z,101403.19
2019-04-20T09:40:00.936Z,101405.75
2019-04-20T09:42:21.488Z,101401.02
2019-04-20T09:44:55.986Z,101396.24
2019-04-20T09:47:28.327Z,101397.92
2019-04-20T09:50:02.717Z,101391.64
2019-04-20T09:52:31.349Z,101390.66
2019-04-20T09:55:03.121Z,101398.85
2019-04-20T09:57:34.070Z,101390.47
2019-04-20T10:00:01.712Z,101384.03
2019-04-20T10:02:22.017Z,101386.11
2019-04-20T10:04:43.954Z,101391.39
2019-04-20T10:07:15.992Z,101384.31
2019-04-20T10:09:44.853Z,101382.63
2019-04-20T10:12:09.566Z,101379.22
2019-04-20T10:14:36.733Z,101374.61
2019-04-20T10:17:03.808Z,101375.48
2019-04-20T10:19:34.652Z,101369.86
2019-04-20T10:22:02.514Z,101368.85
2019-04-20T10:24:30.657Z,101367.55
2019-04-20T10:26:58.784Z,101364.57
2019-04-20T10:29:27.890Z,101366.89
2019-04-20T10:31:58.647Z,101367.33
2019-04-20T10:34:24.296Z,101362.45
2019-04-20T10:37:11.449Z,101353.95
2019-04-20T10:39:40.558Z,101348.03
2019-04-20T10:42:08.147Z,101346.55
2019-04-20T10:44:36.607Z,101344.05
2019-04-20T10:47:05.048Z,101348.52
2019-04-20T10:49:33.375Z,101344.19
2019-04-20T10:52:01.956Z,101344.55
2019-04-20T10:54:32.363Z,101345.64
2019-04-20T10:57:01.417Z,101344.08
2019-04-20T10:59:29.814Z,101343.59
2019-04-20T11:01:59.671Z,101339.23
2019-04-20T11:04:28.421Z,101342.60
2019-04-20T11:06:56.668Z,101348.84
2019-04-20T11:09:27.324Z,101339.73
2019-04-20T11:11:54.505Z,101347.30
2019-04-20T11:14:28.141Z,101347.30
2019-04-20T11:16:52.280Z,101346.73
2019-04-20T11:19:21.123Z,101339.61
2019-04-20T11:21:50.318Z,101338.78
2019-04-20T11:24:32.272Z,101335.66
2019-04-20T11:27:18.354Z,101321.06
2019-04-20T11:29:46.773Z,101317.45
2019-04-20T11:32:14.313Z,101319.62
2019-04-20T11:34:42.473Z,101319.47
2019-04-20T11:37:15.278Z,101312.65
2019-04-20T11:39:43.159Z,101313.88
2019-04-20T11:42:19.555Z,101305.53
2019-04-20T11:44:50.831Z,101311.11
2019-04-20T11:47:18.937Z,101299.86
2019-04-20T11:49:49.497Z,101297.09
2019-04-20T11:52:21.127Z,101292.62
2019-04-20T11:54:54.727Z,101291.39
2019-04-20T11:57:27.169Z,101292.84
2019-04-20T11:59:55.038Z,101280.86
2019-04-20T12:02:37.126Z,101284.86
2019-04-20T12:05:19.883Z,101279.04
2019-04-20T12:07:55.755Z,101275.02
2019-04-20T12:10:26.389Z,101274.19
2019-04-20T12:12:55.625Z,101260.53
2019-04-20T12:15:32.188Z,101261.81
2019-04-20T12:17:59.868Z,101259.02
2019-04-20T12:20:29.058Z,101262.67
2019-04-20T12:23:00.292Z,101262.28
2019-04-20T12:25:28.198Z,101246.14
2019-04-20T12:28:00.136Z,101231.14
2019-04-20T12:30:29.968Z,101248.41
2019-04-20T12:33:02.186Z,101241.02
2019-04-20T12:35:32.091Z,101238.48
2019-04-20T12:37:59.190Z,101241.36
2019-04-20T12:40:28.378Z,101234.10
2019-04-20T12:42:59.229Z,101237.88
2019-04-20T12:45:33.557Z,101228.56
2019-04-20T12:48:04.006Z,101232.38
2019-04-20T12:50:37.344Z,101231.84
2019-04-20T12:53:04.658Z,101223.91
2019-04-20T12:55:32.598Z,101230.13
2019-04-20T12:58:02.845Z,101225.47
2019-04-20T13:00:41.711Z,101219.34
2019-04-20T13:03:09.536Z,101213.78
2019-04-20T13:05:38.077Z,101210.31
2019-04-20T13:08:07.972Z,101209.69
2019-04-20T13:10:37.629Z,101206.16
2019-04-20T13:13:28.189Z,101206.95
2019-04-20T13:16:08.200Z,101196.19
2019-04-20T13:18:41.144Z,101193.84
2019-04-20T13:21:09.298Z,101194.27
2019-04-20T13:23:37.270Z,101181.14
2019-04-20T13:26:09.223Z,101182.25
2019-04-20T13:28:37.068Z,101184.01
2019-04-20T13:31:05.986Z,101178.44
2019-04-20T13:33:35.029Z,101172.13
2019-04-20T13:36:04.059Z,101167.55
2019-04-20T13:38:32.037Z,101155.34
2019-04-20T13:40:59.860Z,101155.34
2019-04-20T13:43:27.933Z,101157.78
2019-04-20T13:45:55.199Z,101154.26
2019-04-20T13:48:22.414Z,101158.52
2019-04-20T13:50:49.759Z,101151.44
2019-04-20T13:53:17.239Z,101152.78
2019-04-20T13:55:45.475Z,101148.00
2019-04-20T13:58:33.932Z,101142.67
2019-04-20T14:01:23.370Z,101140.16
2019-04-20T14:04:05.273Z,101141.75
2019-04-20T14:06:33.167Z,101133.73
2019-04-20T14:09:01.283Z,101122.80
2019-04-20T14:11:31.542Z,101122.42
2019-04-20T14:14:01.463Z,101108.13
2019-04-20T14:16:27.526Z,101119.45
2019-04-20T14:18:57.010Z,101117.25
2019-04-20T14:21:24.245Z,101119.13
2019-04-20T14:23:51.316Z,101121.11
2019-04-20T14:26:18.855Z,101110.89
2019-04-20T14:28:49.355Z,101103.84
2019-04-20T14:31:16.774Z,101109.88
2019-04-20T14:33:44.620Z,101109.88
2019-04-20T14:36:13.061Z,101101.45
2019-04-20T14:38:40.262Z,101100.75
2019-04-20T14:41:08.460Z,101089.78
2019-04-20T14:43:37.008Z,101090.09
2019-04-20T14:46:05.066Z,101084.56
2019-04-20T14:48:32.691Z,101082.31
2019-04-20T14:50:59.823Z,101082.75
2019-04-20T14:53:29.485Z,101078.39
2019-04-20T14:55:59.703Z,101080.87
2019-04-20T14:58:45.335Z,101069.26
2019-04-20T15:01:26.862Z,101062.57
2019-04-20T15:04:02.820Z,101056.73
2019-04-20T15:06:23.430Z,101055.39
2019-04-20T15:09:10.764Z,101053.20
2019-04-20T15:11:41.752Z,101049.23
2019-04-20T15:14:11.086Z,101043.52
2019-04-20T15:16:38.610Z,101044.13
2019-04-20T15:22:33.848Z,101044.95
2019-04-20T15:25:01.420Z,101047.09
2019-04-20T15:27:28.675Z,101043.18
2019-04-20T15:29:56.144Z,101043.02
2019-04-20T15:32:24.942Z,101040.99
2019-04-20T15:34:53.105Z,101038.78
2019-04-20T15:37:30.988Z,101040.48
2019-04-20T15:39:59.050Z,101041.28
2019-04-20T15:42:27.514Z,101032.36
2019-04-20T15:44:58.132Z,101029.16
2019-04-20T15:47:32.034Z,101027.22
2019-04-20T15:50:07.704Z,101021.84
2019-04-20T15:52:44.595Z,101022.06
2019-04-20T15:55:17.001Z,101018.45
2019-04-20T15:57:44.825Z,101017.13
2019-04-20T16:00:14.365Z,101015.54
2019-04-20T16:02:49.574Z,101010.88
2019-04-20T16:05:47.215Z,101014.08
2019-04-20T16:08:46.056Z,101014.05
2019-04-20T16:11:13.460Z,101011.44
2019-04-20T16:13:44.708Z,101000.45
2019-04-20T16:16:12.162Z,101001.41
2019-04-20T16:18:41.474Z,100997.21
2019-04-20T16:21:15.610Z,100998.74
2019-04-20T16:24:06.537Z,101000.41
2019-04-20T16:26:49.617Z,100998.08
2019-04-20T16:29:19.523Z,100999.35
2019-04-20T16:31:49.059Z,100993.64
2019-04-20T16:34:25.969Z,100986.22
2019-04-20T16:36:56.456Z,100986.23
2019-04-20T16:39:25.182Z,100983.93
2019-04-20T16:41:52.322Z,100979.61
2019-04-20T16:44:19.354Z,100974.65
2019-04-20T16:46:50.180Z,100971.08
2019-04-20T16:49:19.138Z,100970.77
2019-04-20T16:51:47.653Z,100970.38
2019-04-20T16:54:15.876Z,100972.09
2019-04-20T16:56:44.535Z,100967.78
2019-04-20T16:59:14.202Z,100970.72
2019-04-20T17:01:42.583Z,100965.98
2019-04-20T17:04:15.411Z,100954.70
2019-04-20T17:06:47.778Z,100963.11
2019-04-20T17:09:16.226Z,100957.64
2019-04-20T17:11:43.776Z,100956.79
2019-04-20T17:14:14.817Z,100956.44
2019-04-20T17:16:45.946Z,100946.67
2019-04-20T17:19:13.528Z,100944.33
2019-04-20T17:22:15.246Z,100951.50
2019-04-20T17:24:49.440Z,100948.19
2019-04-20T17:27:44.619Z,100948.45
2019-04-20T17:30:39.968Z,100951.66
2019-04-20T17:33:13.993Z,100948.95
2019-04-20T17:35:57.335Z,100947.77
2019-04-20T17:38:36.170Z,100948.92
2019-04-20T17:41:22.408Z,100948.27
2019-04-20T17:44:05.893Z,100950.09
2019-04-20T17:46:47.652Z,100954.25
2019-04-20T17:49:19.735Z,100947.08
2019-04-20T17:52:06.263Z,100951.99
2019-04-20T17:54:27.844Z,100950.77
2019-04-20T17:56:56.324Z,100938.98
2019-04-20T17:59:47.226Z,100941.63
2019-04-20T18:02:58.580Z,100951.63
2019-04-20T18:06:03.377Z,100946.89
2019-04-20T18:08:29.729Z,100952.20
2019-04-20T18:10:57.331Z,100957.66
2019-04-20T18:13:22.468Z,100957.97
2019-04-20T18:16:12.742Z,100954.81
2019-04-20T18:18:52.877Z,100951.00
2019-04-20T18:21:28.646Z,100955.84
2019-04-20T18:23:58.387Z,100958.58
2019-04-20T18:26:48.039Z,100959.81
2019-04-20T18:29:37.330Z,100960.42
2019-04-20T18:32:15.632Z,100960.89
2019-04-20T18:35:40.446Z,100954.97
2019-04-20T18:38:07.699Z,100962.81
2019-04-20T18:40:41.578Z,100967.43
2019-04-20T18:43:08.225Z,100964.72
2019-04-20T18:45:53.447Z,100970.13
2019-04-20T18:48:24.986Z,100958.73
2019-04-20T18:50:40.340Z,100965.25
2019-04-20T18:53:14.789Z,100966.11
2019-04-20T18:55:43.741Z,100967.58
2019-04-20T18:58:06.932Z,100969.53
2019-04-20T19:00:40.789Z,100971.75
2019-04-20T19:03:12.035Z,100982.75
2019-04-20T19:05:35.759Z,100982.33
2019-04-20T19:08:08.434Z,100982.54
2019-04-20T19:10:36.175Z,100984.28
2019-04-20T19:13:08.105Z,100990.91
2019-04-20T19:16:00.257Z,100994.13
2019-04-20T19:18:50.711Z,100990.41
2019-04-20T19:21:05.248Z,100990.13
2019-04-20T19:23:36.666Z,100991.75
2019-04-20T19:26:09.623Z,100994.45
2019-04-20T19:28:42.193Z,101002.66
2019-04-20T19:31:17.604Z,101001.94
2019-04-20T19:33:54.696Z,100999.87
2019-04-20T19:36:15.198Z,101001.52
2019-04-20T19:38:43.007Z,101002.80
2019-04-20T19:41:16.408Z,101002.66
2019-04-20T19:43:35.773Z,101008.28
2019-04-20T19:46:34.906Z,100999.57
2019-04-20T19:48:39.304Z,101005.38
2019-04-20T19:51:24.054Z,100999.05
2019-04-20T19:53:58.733Z,101007.53
2019-04-20T19:56:16.982Z,101003.73
2019-04-20T19:58:49.691Z,101010.79
2019-04-20T20:01:02.901Z,101009.70
2019-04-20T20:03:30.499Z,101009.91
2019-04-20T20:05:59.668Z,101012.02
2019-04-20T20:08:29.947Z,101005.95
2019-04-20T20:11:00.837Z,101011.68
2019-04-20T20:13:34.584Z,101005.70
2019-04-20T20:16:09.008Z,101007.61
2019-04-20T20:18:39.299Z,101009.88
2019-04-20T20:21:07.345Z,101014.73
2019-04-20T20:23:23.905Z,101010.13
2019-04-20T20:25:51.472Z,101010.23
2019-04-20T20:28:32.272Z,101014.06
2019-04-20T20:31:05.059Z,101013.95
2019-04-20T20:33:39.636Z,101016.11
2019-04-20T20:36:05.620Z,101016.55
2019-04-20T20:38:33.984Z,101016.33
2019-04-20T20:41:10.582Z,101019.69
2019-04-20T20:43:40.745Z,101022.20
2019-04-20T20:46:06.488Z,101018.39
2019-04-20T20:48:38.764Z,101023.41
2019-04-20T20:51:13.592Z,101022.36
2019-04-20T20:53:38.733Z,101026.22
2019-04-20T20:56:06.272Z,101028.49
2019-04-20T20:58:43.079Z,101026.48
2019-04-20T21:01:04.374Z,101031.50
2019-04-20T21:03:32.188Z,101029.70
2019-04-20T21:05:55.601Z,101028.66
2019-04-20T21:08:23.905Z,101023.73
2019-04-20T21:10:52.697Z,101030.45
2019-04-20T21:13:21.466Z,101026.02
2019-04-20T21:15:53.898Z,101030.05
2019-04-20T21:18:36.888Z,101028.36
2019-04-20T21:21:06.439Z,101029.08
2019-04-20T21:23:35.301Z,101037.23
2019-04-20T21:26:06.886Z,101039.00
2019-04-20T21:28:36.246Z,101040.05
2019-04-20T21:31:12.522Z,101038.97
2019-04-20T21:33:40.113Z,101038.59
2019-04-20T21:36:07.153Z,101038.22
2019-04-20T21:38:39.348Z,101033.81
2019-04-20T21:41:09.410Z,101035.69
2019-04-20T21:43:37.285Z,101038.95
2019-04-20T21:46:05.480Z,101041.34
2019-04-20T21:48:49.207Z,101044.17
2019-04-20T21:51:16.605Z,101040.77
2019-04-20T21:53:33.375Z,101045.62
2019-04-20T21:55:59.785Z,101045.80
2019-04-20T21:58:33.277Z,101042.73
2019-04-20T22:01:08.071Z,101049.58
2019-04-20T22:03:30.000Z,101045.88
2019-04-20T22:06:07.054Z,101048.05
2019-04-20T22:08:39.436Z,101046.42
2019-04-20T22:11:06.308Z,101048.39
2019-04-20T22:13:38.891Z,101050.98
2019-04-20T22:16:07.284Z,101049.05
2019-04-20T22:18:46.363Z,101055.86
2019-04-20T22:21:11.195Z,101049.57
2019-04-20T22:23:49.237Z,101051.20
2019-04-20T22:26:12.077Z,101052.57
2019-04-20T22:28:29.757Z,101047.92
2019-04-20T22:30:57.979Z,101053.63
2019-04-20T22:33:36.568Z,101050.36
2019-04-20T22:36:04.497Z,101048.27
2019-04-20T22:39:07.522Z,101046.75
2019-04-20T22:41:40.876Z,101046.31
2019-04-20T22:44:15.158Z,101047.29
2019-04-20T22:46:40.873Z,101047.48
2019-04-20T22:49:26.892Z,101043.89
2019-04-20T22:51:48.216Z,101041.97
2019-04-20T22:54:23.267Z,101043.43
2019-04-20T22:56:47.266Z,101044.94
2019-04-20T22:59:12.725Z,101039.31
2019-04-20T23:01:44.434Z,101041.29
2019-04-20T23:04:06.394Z,101042.91
2019-04-20T23:06:40.149Z,101039.23
2019-04-20T23:09:10.324Z,101031.80
2019-04-20T23:11:37.150Z,101034.31
2019-04-20T23:14:04.930Z,101032.48
2019-04-20T23:16:37.846Z,101039.60
2019-04-20T23:19:02.439Z,101036.41
2019-04-20T23:21:29.977Z,101033.37
2019-04-20T23:24:01.585Z,101034.36
2019-04-20T23:26:33.493Z,101037.15
2019-04-20T23:28:58.725Z,101029.46
2019-04-20T23:31:25.673Z,101024.90
2019-04-20T23:33:53.959Z,101026.33
2019-04-20T23:36:30.695Z,101023.93
2019-04-20T23:38:54.733Z,101020.14
2019-04-20T23:41:21.882Z,101009.44
2019-04-20T23:44:03.815Z,101011.93
2019-04-20T23:46:47.865Z,101014.16
2019-04-20T23:49:34.155Z,101005.97
2019-04-20T23:52:29.591Z,101008.31
2019-04-20T23:54:30.230Z,101006.63
2019-04-20T23:56:57.533Z,101007.95
2019-04-20T23:59:32.365Z,100995.00
